Time;durP1;ratioP1;P1;durP2;ratioP2;P2;SDS_P1;SDS_P2;PMS_P1;PMS_P2;Temp;Humidity;BMP_temperature;BMP_pressure;BME280_temperature;BME280_humidity;BME280_pressure;Samples;Min_cycle;Max_cycle;Signal;HPM_P1;HPM_P2
2023/04/07 00:01:18;;;;;;;23.50;16.50;;;;;;;4.76;81.42;99832.16;5053823;28;20477;-76
2023/04/07 00:03:43;;;;;;;26.98;17.55;;;;;;;4.56;82.12;99809.34;5054363;28;20029;-75
2023/04/07 00:06:09;;;;;;;28.33;17.98;;;;;;;4.72;82.46;99833.97;5053753;28;20025;-75
2023/04/07 00:08:34;;;;;;;26.75;18.42;;;;;;;4.84;83.18;99825.13;5053782;28;20384;-76
2023/04/07 00:11:00;;;;;;;29.10;19.02;;;;;;;4.92;82.99;99823.22;5053755;28;20060;-75
2023/04/07 00:13:25;;;;;;;23.70;17.45;;;;;;;4.81;83.31;99804.56;5053952;28;20025;-75
2023/04/07 00:15:51;;;;;;;29.88;18.90;;;;;;;4.90;83.51;99817.25;5053794;28;20021;-76
2023/04/07 00:18:16;;;;;;;27.88;19.48;;;;;;;4.87;83.84;99813.91;5053587;28;20533;-75
2023/04/07 00:20:41;;;;;;;23.83;18.15;;;;;;;4.85;83.79;99816.53;5053668;28;20025;-75
2023/04/07 00:23:07;;;;;;;26.70;18.00;;;;;;;4.69;84.42;99787.59;5053305;28;20021;-75
2023/04/07 00:25:32;;;;;;;27.58;18.92;;;;;;;4.85;84.62;99813.94;5053699;28;20056;-75
2023/04/07 00:27:57;;;;;;;24.63;17.52;;;;;;;4.86;84.78;99815.63;5053669;28;20071;-76
2023/04/07 00:30:23;;;;;;;27.58;18.65;;;;;;;4.85;85.26;99813.09;5053347;28;20029;-75
2023/04/07 00:32:50;;;;;;;28.73;19.85;;;;;;;4.69;85.71;99797.91;5053483;28;20373;-75
2023/04/07 00:35:15;;;;;;;32.08;20.08;;;;;;;4.61;85.89;99817.84;5053043;28;20473;-76
2023/04/07 00:37:41;;;;;;;29.10;19.30;;;;;;;4.55;86.90;99807.66;5053273;28;20025;-76
2023/04/07 00:40:07;;;;;;;29.02;21.45;;;;;;;4.67;87.48;99806.56;5052932;28;20025;-76
2023/04/07 00:42:32;;;;;;;26.77;19.17;;;;;;;4.57;87.84;99811.06;5053270;28;20111;-75
2023/04/07 00:44:57;;;;;;;30.98;19.63;;;;;;;4.66;87.82;99799.69;5053278;28;20464;-75
2023/04/07 00:47:23;;;;;;;26.27;19.35;;;;;;;4.60;87.58;99800.69;5053041;28;20029;-75
2023/04/07 00:49:48;;;;;;;23.83;18.83;;;;;;;4.66;88.17;99799.69;5053107;28;20021;-76
2023/04/07 00:52:14;;;;;;;30.10;21.25;;;;;;;4.69;88.36;99799.66;5052693;28;20032;-76
2023/04/07 00:54:41;;;;;;;28.95;20.15;;;;;;;4.63;88.54;99784.28;5053141;28;20032;-76
2023/04/07 00:57:06;;;;;;;25.33;19.23;;;;;;;4.52;88.73;99755.28;5052609;28;20591;-75
2023/04/07 00:59:33;;;;;;;31.63;21.83;;;;;;;4.58;88.37;99774.06;5052937;28;20025;-75
2023/04/07 01:02:12;;;;;;;28.95;20.85;;;;;;;4.45;88.82;99757.13;5052943;28;20033;-75
2023/04/07 01:04:50;;;;;;;28.27;20.77;;;;;;;4.37;89.62;99759.84;5051424;28;20104;-76
2023/04/07 01:07:22;;;;;;;31.02;20.23;;;;;;;4.38;89.91;99771.88;5052328;28;20036;-75
2023/04/07 01:09:54;;;;;;;28.52;19.33;;;;;;;4.38;90.58;99781.31;5052817;28;20415;-76
2023/04/07 01:12:41;;;;;;;29.33;20.80;;;;;;;4.38;90.87;99774.47;5052460;28;20025;-76
2023/04/07 01:15:11;;;;;;;32.85;21.35;;;;;;;4.32;91.01;99755.69;5052435;28;20031;-75
2023/04/07 01:17:42;;;;;;;27.95;20.27;;;;;;;4.30;91.24;99770.31;5052376;28;20032;-75
2023/04/07 01:20:12;;;;;;;25.88;20.73;;;;;;;4.24;91.56;99759.25;5052687;28;20380;-75
2023/04/07 01:22:40;;;;;;;31.77;22.73;;;;;;;4.34;91.88;99771.94;5052341;28;20041;-76
2023/04/07 01:25:27;;;;;;;28.60;19.88;;;;;;;4.38;92.13;99771.88;5052117;28;20425;-75
2023/04/07 01:28:14;;;;;;;27.08;20.50;;;;;;;4.38;91.96;99766.72;5052127;28;20045;-75
2023/04/07 01:30:43;;;;;;;32.42;22.88;;;;;;;4.23;91.88;99741.22;5052192;28;20714;-76
2023/04/07 01:33:11;;;;;;;31.85;20.95;;;;;;;4.36;92.18;99765.91;5052113;28;20115;-75
2023/04/07 01:35:38;;;;;;;30.00;22.00;;;;;;;4.08;93.09;99757.81;5052062;28;20088;-75
2023/04/07 01:38:05;;;;;;;28.38;22.10;;;;;;;3.99;93.14;99740.81;5052151;28;20088;-75
2023/04/07 01:40:33;;;;;;;29.95;22.60;;;;;;;4.06;93.21;99751.03;5052323;28;20108;-75
2023/04/07 01:43:00;;;;;;;29.73;24.02;;;;;;;3.73;94.05;99755.88;5052416;28;20419;-75
2023/04/07 01:45:27;;;;;;;37.55;25.52;;;;;;;3.90;94.48;99758.16;5052060;28;20057;-75
2023/04/07 01:47:53;;;;;;;35.10;24.35;;;;;;;3.80;94.37;99738.59;5052101;28;20107;-75
2023/04/07 01:50:20;;;;;;;33.15;23.95;;;;;;;4.02;94.61;99763.09;5051754;28;20025;-75
2023/04/07 01:52:46;;;;;;;32.45;24.50;;;;;;;4.04;94.28;99750.19;5051779;28;20025;-75
2023/04/07 01:55:13;;;;;;;28.27;23.60;;;;;;;3.74;94.24;99712.06;5051942;28;20025;-75
2023/04/07 01:57:38;;;;;;;29.90;22.80;;;;;;;4.04;94.54;99757.91;5051955;28;20383;-75
2023/04/07 02:00:05;;;;;;;34.60;26.20;;;;;;;4.04;94.38;99735.56;5052078;28;20021;-75
2023/04/07 02:02:35;;;;;;;33.40;25.50;;;;;;;3.90;94.41;99737.56;5051635;28;20048;-76
2023/04/07 02:05:04;;;;;;;38.40;27.65;;;;;;;4.04;94.60;99739.88;5051780;28;20021;-75
2023/04/07 02:07:41;;;;;;;31.98;24.52;;;;;;;3.90;94.63;99735.81;5051488;28;20147;-76
2023/04/07 02:10:10;;;;;;;38.55;27.08;;;;;;;3.87;94.60;99720.41;5051733;28;20033;-75
2023/04/07 02:12:38;;;;;;;35.83;26.23;;;;;;;4.06;94.52;99736.41;5051736;28;20040;-76
2023/04/07 02:15:05;;;;;;;35.45;25.13;;;;;;;3.87;94.75;99714.41;5051708;28;20023;-76
2023/04/07 02:17:33;;;;;;;34.22;25.40;;;;;;;3.97;94.58;99726.28;5049965;28;20033;-76
2023/04/07 02:20:01;;;;;;;32.35;25.08;;;;;;;4.00;94.77;99715.88;5051485;28;20029;-75
2023/04/07 02:22:27;;;;;;;35.80;27.17;;;;;;;4.21;94.25;99730.09;5051565;28;20377;-76
2023/04/07 02:24:53;;;;;;;39.90;26.70;;;;;;;4.09;94.29;99736.34;5051673;28;20029;-75
2023/04/07 02:27:19;;;;;;;35.55;26.17;;;;;;;4.12;94.80;99727.69;5051169;28;20032;-76
2023/04/07 02:29:44;;;;;;;37.40;26.80;;;;;;;3.97;94.82;99703.06;5051549;28;20114;-75
2023/04/07 02:32:10;;;;;;;36.95;27.08;;;;;;;4.09;94.72;99709.69;5051633;28;20049;-75
2023/04/07 02:34:35;;;;;;;36.33;27.67;;;;;;;4.19;94.91;99713.81;5054297;28;20032;-75
2023/04/07 02:37:01;;;;;;;34.55;26.25;;;;;;;4.19;94.14;99719.81;5055699;28;20029;-76
2023/04/07 02:39:26;;;;;;;39.00;28.65;;;;;;;4.18;94.51;99719.84;5055426;28;20448;-75
2023/04/07 02:41:51;;;;;;;34.67;26.75;;;;;;;4.02;94.78;99715.88;5055579;28;20424;-75
2023/04/07 02:44:16;;;;;;;33.80;26.77;;;;;;;3.98;94.94;99697.88;5055180;28;20099;-75
2023/04/07 02:46:42;;;;;;;32.83;24.92;;;;;;;4.15;95.06;99714.75;5055370;28;20028;-75
2023/04/07 02:49:07;;;;;;;35.15;26.45;;;;;;;3.98;94.87;99695.31;5055243;28;20032;-75
2023/04/07 02:51:32;;;;;;;37.30;26.67;;;;;;;4.11;95.02;99718.25;5055239;28;20025;-75
2023/04/07 02:53:58;;;;;;;35.53;25.90;;;;;;;3.99;94.85;99698.72;5055261;28;20083;-75
2023/04/07 02:56:23;;;;;;;32.70;23.65;;;;;;;3.95;95.42;99692.78;5054989;28;20021;-75
2023/04/07 02:58:48;;;;;;;35.53;25.75;;;;;;;3.99;95.14;99688.41;5055305;28;20524;-75
2023/04/07 03:01:14;;;;;;;31.52;21.98;;;;;;;4.15;95.41;99710.44;5055025;28;20429;-75
2023/04/07 03:03:41;;;;;;;30.77;23.65;;;;;;;4.14;94.92;99703.59;5055013;28;20025;-76
2023/04/07 03:06:06;;;;;;;29.77;23.92;;;;;;;4.14;94.86;99715.63;5055211;28;20068;-76
2023/04/07 03:08:32;;;;;;;30.92;23.40;;;;;;;4.07;94.88;99698.59;5054866;28;20081;-76
2023/04/07 03:10:57;;;;;;;38.45;25.85;;;;;;;3.99;95.39;99686.69;5054949;28;20040;-76
2023/04/07 03:13:22;;;;;;;34.20;24.33;;;;;;;4.03;95.37;99686.63;5054710;28;20033;-76
2023/04/07 03:15:48;;;;;;;31.52;23.85;;;;;;;3.99;95.23;99701.31;5054754;28;20094;-75
2023/04/07 03:18:13;;;;;;;30.92;22.33;;;;;;;4.05;95.62;99702.94;5054509;28;20366;-76
2023/04/07 03:20:40;;;;;;;32.05;23.17;;;;;;;4.09;95.50;99701.97;5054966;28;20108;-75
2023/04/07 03:23:06;;;;;;;33.42;23.23;;;;;;;4.08;95.71;99708.00;5054855;28;20025;-76
2023/04/07 03:25:32;;;;;;;32.30;22.52;;;;;;;3.82;96.05;99693.88;5054501;28;20388;-76
2023/04/07 03:27:57;;;;;;;30.85;23.23;;;;;;;3.89;96.16;99690.31;5054077;28;20037;-75
2023/04/07 03:30:22;;;;;;;30.38;22.40;;;;;;;3.84;96.23;99679.28;5053169;28;20036;-76
2023/04/07 03:32:48;;;;;;;31.10;23.88;;;;;;;3.91;96.11;99682.56;5053293;28;20138;-76
2023/04/07 03:35:13;;;;;;;30.73;23.25;;;;;;;4.03;96.25;99708.09;5053067;28;20036;-76
2023/04/07 03:37:38;;;;;;;26.10;20.15;;;;;;;3.74;95.61;99683.72;5053362;28;20029;-76
2023/04/07 03:40:04;;;;;;;29.30;20.98;;;;;;;3.53;95.99;99685.84;5053365;28;20025;-75
2023/04/07 03:42:29;;;;;;;30.60;20.63;;;;;;;3.34;96.70;99680.16;5052955;28;20025;-75
2023/04/07 03:44:55;;;;;;;28.08;20.88;;;;;;;3.57;96.83;99708.94;5052841;28;20079;-75
2023/04/07 03:47:21;;;;;;;23.63;18.50;;;;;;;3.61;96.94;99707.16;5053129;28;20068;-75
2023/04/07 03:49:46;;;;;;;26.67;19.38;;;;;;;3.58;96.91;99707.19;5053278;28;20025;-75
2023/04/07 03:52:12;;;;;;;25.13;18.50;;;;;;;3.49;97.07;99708.22;5053037;28;20033;-75
2023/04/07 03:54:37;;;;;;;27.88;18.08;;;;;;;3.02;96.87;99689.22;5052805;28;20025;-75
2023/04/07 03:57:02;;;;;;;24.80;17.98;;;;;;;3.33;97.21;99709.34;5052994;28;20072;-75
2023/04/07 03:59:28;;;;;;;23.92;17.85;;;;;;;3.14;97.14;99685.63;5052711;28;20379;-75
2023/04/07 04:01:53;;;;;;;25.15;18.05;;;;;;;3.43;96.88;99705.75;5052844;28;20488;-75
2023/04/07 04:04:18;;;;;;;25.65;17.52;;;;;;;3.46;96.57;99709.13;5052817;28;20021;-75
2023/04/07 04:06:44;;;;;;;28.80;17.45;;;;;;;3.40;96.38;99686.03;5052857;28;20037;-75
2023/04/07 04:09:09;;;;;;;25.33;17.45;;;;;;;3.61;96.15;99713.16;5053048;28;20052;-75
2023/04/07 04:11:35;;;;;;;23.50;17.48;;;;;;;3.53;95.94;99691.81;5052730;28;20033;-75
2023/04/07 04:14:00;;;;;;;26.13;18.30;;;;;;;3.46;95.80;99680.81;5052801;28;20461;-75
2023/04/07 04:16:26;;;;;;;26.27;17.92;;;;;;;3.63;95.98;99711.41;5052336;28;20032;-75
2023/04/07 04:18:51;;;;;;;26.05;18.23;;;;;;;3.63;95.88;99697.69;5052504;28;20184;-75
2023/04/07 04:21:16;;;;;;;26.02;17.73;;;;;;;3.69;95.66;99713.88;5052450;28;20522;-75
2023/04/07 04:23:42;;;;;;;28.80;20.02;;;;;;;3.59;95.24;99689.16;5052622;28;20028;-75
2023/04/07 04:26:07;;;;;;;27.20;18.52;;;;;;;3.26;95.25;99646.81;5052520;28;20069;-75
2023/04/07 04:28:32;;;;;;;26.30;18.95;;;;;;;3.57;95.12;99688.31;5014710;28;1091896;-75
2023/04/07 04:30:58;;;;;;;53.95;35.83;;;;;;;3.45;94.87;99691.97;5053344;28;20037;-75
2023/04/07 04:33:23;;;;;;;36.15;26.02;;;;;;;3.68;95.41;99717.31;5053173;28;20032;-75
2023/04/07 04:35:48;;;;;;;29.48;20.80;;;;;;;3.70;95.12;99722.44;5053484;28;20029;-76
2023/04/07 04:38:15;;;;;;;30.38;19.23;;;;;;;3.76;95.24;99727.50;5053331;28;20025;-76
2023/04/07 04:40:41;;;;;;;37.15;22.15;;;;;;;3.41;95.49;99702.34;5053143;28;20025;-76
2023/04/07 04:43:06;;;;;;;32.88;20.65;;;;;;;3.38;95.51;99674.09;5053268;28;20029;-75
2023/04/07 04:45:32;;;;;;;30.33;20.30;;;;;;;3.58;95.63;99695.19;5052908;28;20021;-76
2023/04/07 04:47:57;;;;;;;25.83;19.60;;;;;;;3.62;95.08;99698.53;5053098;28;20025;-76
2023/04/07 04:50:23;;;;;;;30.52;21.95;;;;;;;3.80;95.21;99713.69;5053077;28;20491;-76
2023/04/07 04:52:48;;;;;;;30.45;21.52;;;;;;;3.75;94.71;99723.25;5053205;28;20021;-76
2023/04/07 04:55:13;;;;;;;32.13;22.75;;;;;;;3.64;94.90;99701.97;5053059;28;20032;-76
2023/04/07 04:57:39;;;;;;;28.20;21.65;;;;;;;3.73;94.83;99707.78;5051896;28;20025;-76
2023/04/07 05:00:06;;;;;;;28.88;20.92;;;;;;;3.71;95.05;99706.97;5052883;28;20025;-75
2023/04/07 05:02:32;;;;;;;30.45;21.55;;;;;;;3.70;95.30;99694.94;5052806;28;20124;-75
2023/04/07 05:04:57;;;;;;;28.75;20.60;;;;;;;3.81;94.87;99723.13;5052957;28;20092;-76
2023/04/07 05:07:23;;;;;;;36.47;26.50;;;;;;;3.72;94.84;99700.09;5052550;28;20497;-75
2023/04/07 05:09:48;;;;;;;32.30;23.67;;;;;;;3.82;95.04;99729.09;5052769;28;20051;-75
2023/04/07 05:12:14;;;;;;;27.83;20.45;;;;;;;3.83;95.14;99726.50;5052725;28;20028;-76
2023/04/07 05:14:39;;;;;;;30.60;20.30;;;;;;;3.60;94.85;99705.47;5052381;28;20025;-76
2023/04/07 05:17:05;;;;;;;28.20;19.33;;;;;;;3.59;95.03;99696.88;5052427;28;20448;-76
2023/04/07 05:19:31;;;;;;;27.23;20.75;;;;;;;3.63;95.16;99695.97;5052313;28;20029;-76
2023/04/07 05:21:56;;;;;;;28.98;21.70;;;;;;;3.74;95.20;99700.91;5052687;28;20377;-76
2023/04/07 05:24:22;;;;;;;32.22;23.77;;;;;;;3.69;94.90;99701.00;5052366;28;20025;-75
2023/04/07 05:26:47;;;;;;;32.63;23.02;;;;;;;3.60;95.21;99718.34;5052578;28;20053;-76
2023/04/07 05:29:12;;;;;;;28.60;21.05;;;;;;;3.44;95.37;99679.13;5052265;28;20056;-76
2023/04/07 05:31:39;;;;;;;41.60;26.02;;;;;;;3.49;95.21;99700.47;5052185;28;20032;-76
2023/04/07 05:34:04;;;;;;;51.33;29.02;;;;;;;3.48;95.49;99676.47;5052453;28;20063;-76
2023/04/07 05:36:30;;;;;;;40.15;26.17;;;;;;;3.80;95.27;99729.16;5052118;28;20068;-76
2023/04/07 05:38:56;;;;;;;35.72;24.70;;;;;;;3.77;95.67;99723.19;5052308;28;20488;-76
2023/04/07 05:41:21;;;;;;;27.58;19.33;;;;;;;3.45;95.92;99727.16;5051932;28;20025;-75
2023/04/07 05:43:46;;;;;;;34.83;21.58;;;;;;;3.47;96.48;99713.38;5052446;28;20029;-75
2023/04/07 05:46:12;;;;;;;31.67;21.38;;;;;;;3.18;96.28;99682.97;5052036;28;20036;-76
2023/04/07 05:48:37;;;;;;;31.13;22.92;;;;;;;3.47;96.50;99703.09;5051848;28;20374;-75
2023/04/07 05:51:02;;;;;;;30.48;21.52;;;;;;;3.67;96.77;99718.22;5052147;28;20021;-75
2023/04/07 05:53:28;;;;;;;28.95;20.10;;;;;;;3.58;96.24;99694.31;5051781;28;20507;-75
2023/04/07 05:55:53;;;;;;;26.33;20.70;;;;;;;3.55;96.08;99674.63;5051806;28;20025;-75
2023/04/07 05:58:19;;;;;;;29.42;21.10;;;;;;;3.84;95.87;99704.19;5052049;28;20064;-75
2023/04/07 06:00:44;;;;;;;26.30;20.58;;;;;;;3.99;95.52;99722.75;5051551;28;20029;-75
2023/04/07 06:03:10;;;;;;;27.33;20.02;;;;;;;4.04;95.39;99716.69;5051926;28;20036;-75
2023/04/07 06:05:35;;;;;;;30.77;21.00;;;;;;;4.07;95.24;99714.06;5051490;28;20029;-75
2023/04/07 06:08:00;;;;;;;28.25;20.83;;;;;;;3.95;95.29;99697.94;5051642;28;20049;-76
2023/04/07 06:10:26;;;;;;;27.40;19.98;;;;;;;3.84;94.76;99674.13;5051584;28;20067;-76
2023/04/07 06:12:51;;;;;;;39.17;26.67;;;;;;;4.07;94.73;99714.06;5051706;28;20025;-76
2023/04/07 06:15:16;;;;;;;37.63;24.92;;;;;;;4.10;94.82;99720.00;5051618;28;20104;-76
2023/04/07 06:17:44;;;;;;;39.35;23.98;;;;;;;4.10;94.82;99708.84;5051549;28;20388;-76
2023/04/07 06:20:10;;;;;;;43.75;25.85;;;;;;;4.21;94.27;99720.66;5051772;28;20029;-76
2023/04/07 06:22:35;;;;;;;37.30;24.98;;;;;;;4.22;94.35;99722.34;5051531;28;20033;-76
2023/04/07 06:25:01;;;;;;;51.63;28.17;;;;;;;4.16;94.21;99711.28;5051634;28;20039;-76
2023/04/07 06:27:27;;;;;;;40.42;25.55;;;;;;;4.24;94.31;99715.41;5051149;28;20487;-76
2023/04/07 06:29:52;;;;;;;25.40;20.48;;;;;;;4.15;93.88;99700.13;5051484;28;20036;-76
2023/04/07 06:32:17;;;;;;;30.38;21.92;;;;;;;4.21;94.01;99714.63;5051875;28;20029;-76
2023/04/07 06:34:43;;;;;;;36.05;23.27;;;;;;;4.04;93.81;99686.59;5051751;28;20420;-75
2023/04/07 06:37:08;;;;;;;30.08;21.08;;;;;;;4.07;94.56;99694.28;5051599;28;20025;-76
2023/04/07 06:39:34;;;;;;;33.08;20.65;;;;;;;4.08;94.27;99705.44;5051398;28;20047;-76
2023/04/07 06:42:00;;;;;;;34.72;23.23;;;;;;;4.00;94.59;99710.72;5050181;28;20083;-76
2023/04/07 06:44:25;;;;;;;25.00;19.52;;;;;;;3.94;94.96;99693.66;5051100;28;20033;-76
2023/04/07 06:46:52;;;;;;;28.10;21.27;;;;;;;3.97;95.47;99695.34;5051591;28;20093;-76
2023/04/07 06:49:18;;;;;;;28.88;21.70;;;;;;;4.15;95.94;99712.19;5051348;28;20104;-76
2023/04/07 06:51:43;;;;;;;25.65;19.45;;;;;;;4.26;95.74;99717.97;5051226;28;20029;-76
2023/04/07 06:54:12;;;;;;;26.60;20.15;;;;;;;4.05;95.23;99675.44;5051392;28;20158;-76
2023/04/07 06:56:38;;;;;;;24.38;18.83;;;;;;;4.24;94.99;99693.94;5051046;28;20541;-76
2023/04/07 06:59:04;;;;;;;25.33;19.15;;;;;;;4.36;94.96;99709.16;5051164;28;20021;-76
2023/04/07 07:01:29;;;;;;;26.70;19.00;;;;;;;4.32;95.04;99698.94;5051151;28;20029;-76
2023/04/07 07:03:54;;;;;;;36.78;21.92;;;;;;;4.31;95.31;99690.38;5051159;28;20025;-76
2023/04/07 07:06:20;;;;;;;29.70;22.10;;;;;;;4.45;94.90;99705.53;5051287;28;20033;-76
2023/04/07 07:08:45;;;;;;;30.02;22.73;;;;;;;4.36;94.76;99685.97;5051061;28;20415;-76
2023/04/07 07:11:10;;;;;;;28.90;22.10;;;;;;;4.22;94.31;99669.94;5051235;28;20354;-76
2023/04/07 07:13:36;;;;;;;45.38;27.85;;;;;;;4.29;94.37;99688.69;5051053;28;20465;-75
2023/04/07 07:16:01;;;;;;;40.60;25.33;;;;;;;4.38;94.63;99711.69;5051225;28;20102;-76
2023/04/07 07:18:26;;;;;;;30.80;22.05;;;;;;;4.28;94.93;99685.28;5051073;28;20045;-76
2023/04/07 07:20:52;;;;;;;28.40;19.92;;;;;;;4.34;94.78;99715.22;5052658;28;20033;-76
2023/04/07 07:23:17;;;;;;;27.48;19.13;;;;;;;4.32;94.91;99704.94;5054713;28;20028;-76
2023/04/07 07:25:42;;;;;;;27.33;19.80;;;;;;;4.18;95.23;99689.78;5054551;28;20116;-76
2023/04/07 07:28:08;;;;;;;26.13;18.50;;;;;;;4.04;95.49;99665.97;5054649;28;20084;-76
2023/04/07 07:30:33;;;;;;;23.23;18.75;;;;;;;4.38;95.56;99722.00;5054543;28;20104;-76
2023/04/07 07:32:59;;;;;;;26.08;19.58;;;;;;;4.23;95.89;99674.22;5054714;28;20577;-76
2023/04/07 07:35:24;;;;;;;23.50;17.52;;;;;;;4.48;95.56;99711.50;5053635;28;20380;-76
2023/04/07 07:37:50;;;;;;;26.33;19.90;;;;;;;4.58;95.46;99721.63;5054010;28;20032;-76
2023/04/07 07:40:16;;;;;;;24.83;18.98;;;;;;;4.62;94.80;99723.25;5054040;28;20021;-76
2023/04/07 07:42:42;;;;;;;28.05;19.65;;;;;;;4.45;94.90;99697.81;5053788;28;20417;-76
2023/04/07 07:45:07;;;;;;;27.92;19.50;;;;;;;4.60;94.97;99732.78;5054244;28;20141;-76
2023/04/07 07:47:33;;;;;;;29.25;19.08;;;;;;;4.63;95.10;99727.53;5053958;28;20120;-76
2023/04/07 07:49:58;;;;;;;23.02;17.45;;;;;;;4.45;94.65;99703.81;5052770;28;20021;-76
2023/04/07 07:52:23;;;;;;;24.92;19.00;;;;;;;4.56;94.75;99729.41;5053842;28;20167;-76
2023/04/07 07:54:50;;;;;;;27.92;19.48;;;;;;;4.55;95.01;99707.06;5053822;28;20028;-76
2023/04/07 07:57:15;;;;;;;25.42;18.60;;;;;;;4.63;95.06;99724.94;5053679;28;20047;-76
2023/04/07 07:59:40;;;;;;;25.02;18.08;;;;;;;4.63;94.93;99728.38;5053471;28;20021;-76
2023/04/07 08:02:06;;;;;;;26.55;17.58;;;;;;;4.67;94.63;99724.00;5053962;28;20036;-76
2023/04/07 08:04:32;;;;;;;24.55;17.58;;;;;;;4.70;94.40;99729.94;5053341;28;20496;-76
2023/04/07 08:06:57;;;;;;;26.33;19.48;;;;;;;4.65;94.17;99705.97;5053656;28;20078;-76
2023/04/07 08:09:23;;;;;;;25.02;18.15;;;;;;;4.70;94.20;99726.53;5053638;28;20046;-76
2023/04/07 08:11:49;;;;;;;23.00;17.30;;;;;;;4.62;94.46;99733.56;5053217;28;20083;-76
2023/04/07 08:14:15;;;;;;;21.35;16.13;;;;;;;4.48;94.22;99720.97;5053512;28;20048;-76
2023/04/07 08:16:41;;;;;;;21.40;16.63;;;;;;;4.39;94.12;99727.16;5053320;28;20064;-75
2023/04/07 08:19:06;;;;;;;22.50;17.73;;;;;;;4.44;94.67;99739.97;5053543;28;20028;-76
2023/04/07 08:21:31;;;;;;;23.30;17.98;;;;;;;4.48;94.89;99736.44;5053312;28;20036;-76
2023/04/07 08:23:57;;;;;;;24.50;17.45;;;;;;;4.52;95.05;99727.75;5053375;28;20021;-75
2023/04/07 08:26:23;;;;;;;22.48;17.83;;;;;;;4.59;94.99;99721.56;5052954;28;20453;-76
2023/04/07 08:28:50;;;;;;;22.85;17.00;;;;;;;4.70;95.20;99734.25;5053050;28;20076;-76
2023/04/07 08:31:16;;;;;;;25.88;18.27;;;;;;;4.68;95.41;99720.56;5052062;28;20100;-77
2023/04/07 08:33:41;;;;;;;22.17;17.20;;;;;;;4.55;94.91;99685.56;5053125;28;20456;-77
2023/04/07 08:36:06;;;;;;;22.35;17.23;;;;;;;4.65;94.64;99711.13;5052905;28;20067;-77
2023/04/07 08:38:32;;;;;;;25.30;19.35;;;;;;;4.75;94.53;99720.38;5052684;28;20032;-77
2023/04/07 08:41:06;;;;;;;21.42;17.48;;;;;;;4.65;94.92;99705.97;5052791;28;20610;-77
2023/04/07 08:43:34;;;;;;;66.72;19.95;;;;;;;4.86;95.09;99727.03;5053272;28;20111;-77
2023/04/07 08:46:01;;;;;;;23.52;16.73;;;;;;;4.51;94.41;99695.13;5053235;28;20025;-77
2023/04/07 08:48:32;;;;;;;20.83;14.82;;;;;;;4.74;94.43;99698.03;5053106;28;20107;-77
2023/04/07 08:50:59;;;;;;;;;;;;;;;4.99;94.46;99725.88;5053566;28;20029;-77
2023/04/07 08:53:31;;;;;;;24.90;18.85;;;;;;;5.09;94.55;99719.59;5052630;28;19917;-76
2023/04/07 08:55:57;;;;;;;26.58;18.98;;;;;;;5.06;94.52;99721.44;5052927;28;20029;-77
2023/04/07 08:58:23;;;;;;;26.48;19.35;;;;;;;4.99;94.44;99703.50;5053018;28;20495;-77
2023/04/07 09:00:49;;;;;;;28.60;20.00;;;;;;;5.11;94.57;99712.69;5052634;28;20103;-77
2023/04/07 09:03:16;;;;;;;23.58;17.67;;;;;;;5.16;94.12;99723.75;5062372;28;20021;-77
2023/04/07 09:05:45;;;;;;;21.55;16.02;;;;;;;5.24;94.00;99715.84;5052826;28;20033;-77
2023/04/07 09:08:10;;;;;;;21.27;16.48;;;;;;;5.08;93.58;99699.00;5052987;28;20052;-77
2023/04/07 09:10:36;;;;;;;21.63;16.73;;;;;;;5.20;93.75;99727.13;5052585;28;20064;-77
2023/04/07 09:13:01;;;;;;;20.13;14.18;;;;;;;4.90;93.51;99705.44;5052562;28;20032;-77
2023/04/07 09:15:30;;;;;;;23.45;16.70;;;;;;;4.89;94.05;99709.75;5052820;28;20032;-77
2023/04/07 09:17:57;;;;;;;22.42;16.42;;;;;;;4.92;94.61;99704.50;5052404;28;20036;-77
2023/04/07 09:20:22;;;;;;;21.95;15.82;;;;;;;4.98;94.19;99700.97;5052695;28;20044;-77
2023/04/07 09:22:49;;;;;;;20.63;15.95;;;;;;;5.11;94.02;99719.59;5052333;28;20029;-77
2023/04/07 09:25:25;;;;;;;22.92;18.10;;;;;;;5.08;94.18;99701.59;5052921;28;20033;-77
2023/04/07 09:28:01;;;;;;;20.92;16.13;;;;;;;4.93;94.42;99711.38;5052420;28;20458;-77
2023/04/07 09:30:28;;;;;;;24.30;17.90;;;;;;;4.84;94.78;99696.09;5052413;28;20068;-77
2023/04/07 09:32:54;;;;;;;25.30;18.98;;;;;;;4.76;95.08;99710.88;5052180;28;20028;-77
2023/04/07 09:35:21;;;;;;;27.42;19.42;;;;;;;4.95;95.96;99727.69;5052269;28;20025;-77
2023/04/07 09:38:07;;;;;;;23.65;17.92;;;;;;;4.94;95.76;99700.19;5052175;28;20025;-76
2023/04/07 09:40:33;;;;;;;31.88;20.77;;;;;;;5.02;95.61;99694.00;5052429;28;20025;-77
2023/04/07 09:42:59;;;;;;;27.95;19.00;;;;;;;5.18;95.52;99708.22;5051624;28;20037;-77
2023/04/07 09:45:28;;;;;;;26.67;18.77;;;;;;;5.20;94.89;99704.72;5052268;28;20496;-77
2023/04/07 09:47:54;;;;;;;25.23;17.42;;;;;;;5.32;94.86;99726.00;5051726;28;20037;-77
2023/04/07 09:50:33;;;;;;;24.38;17.50;;;;;;;5.35;94.77;99724.19;5052189;28;20459;-77
2023/04/07 09:53:00;;;;;;;24.17;18.52;;;;;;;5.29;94.78;99700.22;5052016;28;20052;-77
2023/04/07 09:55:27;;;;;;;24.75;18.02;;;;;;;5.50;94.60;99728.09;5052085;28;20469;-77
2023/04/07 09:57:57;;;;;;;22.15;16.45;;;;;;;5.32;94.13;99700.16;5051774;28;20495;-77
2023/04/07 10:00:23;;;;;;;28.98;19.42;;;;;;;5.35;94.25;99708.69;5051918;28;20075;-77
2023/04/07 10:02:50;;;;;;;23.67;18.17;;;;;;;5.35;94.33;99723.31;5051563;28;20392;-76
2023/04/07 10:05:16;;;;;;;24.70;20.27;;;;;;;5.25;94.69;99707.19;5041894;28;20021;-76
2023/04/07 10:07:42;;;;;;;28.13;19.10;;;;;;;5.35;94.68;99716.44;5031544;28;20052;-76
2023/04/07 10:10:07;;;;;;;27.40;17.83;;;;;;;5.39;94.63;99725.78;5031655;28;20029;-76
2023/04/07 10:12:35;;;;;;;28.08;19.25;;;;;;;5.22;94.23;99699.50;5031904;28;20106;-76
2023/04/07 10:15:01;;;;;;;26.45;18.45;;;;;;;5.36;94.77;99725.03;5031504;28;20032;-77
2023/04/07 10:17:27;;;;;;;37.05;23.35;;;;;;;4.97;95.69;99706.97;5030595;28;20025;-76
2023/04/07 10:19:55;;;;;;;29.60;19.80;;;;;;;5.09;96.46;99729.94;5031446;28;20033;-76
2023/04/07 10:22:21;;;;;;;27.90;19.60;;;;;;;5.05;96.46;99725.72;5032126;28;20122;-76
2023/04/07 10:25:23;;;;;;;29.85;21.45;;;;;;;5.04;97.00;99723.19;5031629;28;20072;-77
2023/04/07 10:27:52;;;;;;;31.05;21.83;;;;;;;5.14;96.88;99714.34;5048899;28;20198;-76
2023/04/07 10:30:23;;;;;;;30.05;22.00;;;;;;;5.08;96.55;99706.75;5049234;28;20076;-76
2023/04/07 10:32:50;;;;;;;;;;;;;;;5.17;96.81;99717.69;5049362;28;20044;-76
2023/04/07 10:35:16;;;;;;;25.38;18.05;;;;;;;5.17;96.82;99697.03;5049162;28;19913;-76
2023/04/07 10:38:09;;;;;;;26.30;20.13;;;;;;;5.37;96.48;99714.66;5048713;28;20033;-76
2023/04/07 10:40:35;;;;;;;29.90;18.70;;;;;;;5.37;96.15;99703.47;5049029;28;20032;-77
2023/04/07 10:43:00;;;;;;;34.05;21.55;;;;;;;5.32;96.18;99692.41;5049115;28;20393;-76
2023/04/07 10:45:44;;;;;;;27.77;19.95;;;;;;;5.47;96.31;99715.25;5049205;28;20033;-76
2023/04/07 10:48:11;;;;;;;32.40;21.50;;;;;;;5.46;96.62;99711.84;5049021;28;20120;-76
2023/04/07 10:50:36;;;;;;;34.30;23.13;;;;;;;5.41;96.34;99713.69;5049110;28;20048;-77
2023/04/07 10:53:12;;;;;;;31.85;21.23;;;;;;;5.47;96.17;99712.69;5048811;28;20047;-77
2023/04/07 10:55:39;;;;;;;28.10;20.88;;;;;;;5.48;96.59;99720.41;5034587;28;20140;-76
2023/04/07 10:58:30;;;;;;;34.03;22.15;;;;;;;5.47;96.54;99723.00;5052558;28;20029;-76
2023/04/07 11:01:13;;;;;;;33.65;21.38;;;;;;;5.34;96.75;99719.03;5049769;28;20107;-77
2023/04/07 11:03:50;;;;;;;38.17;24.83;;;;;;;5.43;97.05;99711.91;5035414;28;20028;-77
2023/04/07 11:06:16;;;;;;;33.50;23.73;;;;;;;5.38;97.10;99697.41;5035266;28;20033;-77
2023/04/07 11:08:43;;;;;;;37.00;25.88;;;;;;;5.48;97.05;99706.66;5035246;28;20024;-76
2023/04/07 11:11:11;;;;;;;38.67;25.83;;;;;;;5.48;96.73;99712.66;5035023;28;20555;-77
2023/04/07 11:13:47;;;;;;;33.15;23.92;;;;;;;5.60;96.63;99713.22;5035026;28;20022;-77
2023/04/07 11:16:14;;;;;;;36.67;25.65;;;;;;;5.48;96.90;99689.41;5033670;28;20032;-77
2023/04/07 11:18:40;;;;;;;39.00;26.00;;;;;;;5.72;96.74;99716.34;5034998;28;20111;-77
2023/04/07 11:21:06;;;;;;;35.33;25.80;;;;;;;5.83;96.67;99716.06;5034806;28;20388;-77
2023/04/07 11:23:43;;;;;;;39.15;25.63;;;;;;;5.80;96.18;99702.38;5034824;28;20108;-77
2023/04/07 11:26:10;;;;;;;31.88;22.65;;;;;;;5.90;96.20;99714.16;5035234;28;20121;-77